This is the latest recevied weather packets stored in our database for station/object PE1RXF-13. If no packets are shown the sender has not sent any weather packets the latest 10 day(s).
| Time | Temp. | Humidity | Pressure | Rain* | Wind** | Luminosity | Snow |
|---|---|---|---|---|---|---|---|
| 1777931055 | 9.44° C | 99% | 1013.6 hPa | 0 mm | - | 0 W/m² | - |
| 1777929254 | 10° C | 99% | 1013.6 hPa | 0 mm | - | 0 W/m² | - |
| 1777927454 | 10.56° C | 99% | 1013.5 hPa | 0 mm | - | 0 W/m² | - |
| 1777925654 | 10.56° C | 99% | 1013.5 hPa | 0 mm | - | 0 W/m² | - |
| 1777923854 | 11.11° C | 99% | 1013.3 hPa | 0 mm | - | 0 W/m² | - |
| 1777922054 | 11.67° C | 99% | 1013.1 hPa | 0 mm | - | 0 W/m² | - |
| 1777920256 | 12.22° C | 99% | 1013 hPa | 0 mm | - | 3 W/m² | - |
| 1777918454 | 13.33° C | 99% | 1012.7 hPa | 0 mm | - | 11 W/m² | - |
| 1777916655 | 13.33° C | 99% | 1012.7 hPa | 0 mm | - | 13 W/m² | - |
| 1777914854 | 13.89° C | 99% | 1012.6 hPa | 0 mm | - | 19 W/m² | - |
| 1777913055 | 15.56° C | 99% | 1012.5 hPa | 0 mm | - | 55 W/m² | - |
| 1777911254 | 16.11° C | 98% | 1012.5 hPa | 0 mm | - | 98 W/m² | - |
| 1777909454 | 15.56° C | 99% | 1012.6 hPa | 0 mm | - | 88 W/m² | - |
| 1777907654 | 16.67° C | 99% | 1012.7 hPa | 0 mm | - | 104 W/m² | - |
| 1777905856 | 15.56° C | 99% | 1012.7 hPa | 0 mm | - | 56 W/m² | - |
| 1777904055 | 16.11° C | 99% | 1012.7 hPa | 0 mm | - | 73 W/m² | - |
| 1777902256 | 16.67° C | 99% | 1012.9 hPa | 0 mm | - | 87 W/m² | - |
| 1777900455 | 17.22° C | 99% | 1012.9 hPa | 0 mm | - | 128 W/m² | - |
| 1777898656 | 16.67° C | 99% | 1012.8 hPa | 0 mm | - | 107 W/m² | - |
| 1777896855 | 18.33° C | 94% | 1012.8 hPa | 0 mm | - | 94 W/m² | - |
| 1777895055 | 19.44° C | 84% | 1012.9 hPa | 0 mm | - | 140 W/m² | - |
| 1777893255 | 18.89° C | 90% | 1013.1 hPa | 0 mm | - | 139 W/m² | - |
| 1777891455 | 18.33° C | 90% | 1013.2 hPa | 0 mm | - | 192 W/m² | - |
| 1777889655 | 15.56° C | 99% | 1013.3 hPa | 0 mm | - | 110 W/m² | - |
| 1777887856 | 14.44° C | 99% | 1013.3 hPa | 0 mm | - | 56 W/m² | - |
* Rain latest hour (hover to see other rain measurements)
** Current wind speed in m/s (hover to see current wind gust speed)